Terminal Aerodrome Forecast
Issued by NWS

Home | Current Version | Previous Version | Text Only | Print | Product List | Glossary Off
Versions: 1 2 3 4 5 6 7 8 9 10 11 12 13 14 15

409
FTUS43 KIWX 032320
TAFSBN
TAF
KSBN 032320Z 0400/0424 24008KT P6SM BKN100
     FM040900 22012KT 5SM SHRA BR OVC020
     FM041200 30014G24KT 3SM -RA BR OVC007
     FM041800 34020G30KT P6SM OVC020=

USA.gov is the U.S. government's official web portal to all federal, state and local government web resources and services.